Time;durP1;ratioP1;P1;durP2;ratioP2;P2;SDS_P1;SDS_P2;PMS_P1;PMS_P2;Temp;Humidity;BMP_temperature;BMP_pressure;BME280_temperature;BME280_humidity;BME280_pressure;Samples;Min_cycle;Max_cycle;Signal;HPM_P1;HPM_P2
2021/04/30 00:00:10;;;;;;;3.85;3.20;;;11.70;99.30;11.70;98905.00;;;;338878;28;84296;-90
2021/04/30 00:00:22;;;;;;;3.75;3.38;;;11.70;99.40;11.80;98895.00;;;;338015;28;96309;-91
2021/04/30 00:00:34;;;;;;;3.40;3.03;;;11.70;99.30;11.90;98899.00;;;;337289;28;83597;-90
2021/04/30 00:00:45;;;;;;;3.50;3.03;;;11.60;99.20;11.80;98905.00;;;;338324;28;95926;-91
2021/04/30 00:01:01;;;;;;;5.22;3.00;;;11.70;99.20;11.90;98908.00;;;;336406;28;85026;-90
2021/04/30 00:01:12;;;;;;;5.57;3.20;;;11.70;99.20;12.00;98903.00;;;;338406;28;95689;-90
2021/04/30 00:01:24;;;;;;;5.50;3.03;;;11.70;99.10;12.10;98900.00;;;;337817;28;85211;-90
2021/04/30 00:01:35;;;;;;;4.60;2.70;;;11.70;99.00;12.10;98894.00;;;;338417;28;96273;-90
2021/04/30 00:01:47;;;;;;;5.40;2.78;;;11.80;99.00;12.00;98894.00;;;;338990;28;83592;-91
2021/04/30 00:01:58;;;;;;;5.18;2.80;;;11.80;99.00;11.90;98897.00;;;;338414;28;97382;-90
2021/04/30 00:02:10;;;;;;;3.80;3.05;;;11.80;99.00;11.80;98895.00;;;;341406;28;84954;-91
2021/04/30 00:02:22;;;;;;;4.95;3.25;;;11.80;99.00;11.80;98901.00;;;;339218;28;96819;-90
2021/04/30 00:02:34;;;;;;;6.22;3.38;;;11.70;99.00;11.70;98894.00;;;;336328;28;84686;-90
2021/04/30 00:02:45;;;;;;;5.75;3.25;;;11.80;99.30;11.80;98893.00;;;;337050;28;97013;-90
2021/04/30 00:02:57;;;;;;;4.70;3.03;;;11.70;99.30;11.90;98896.00;;;;335159;29;83647;-91
2021/04/30 00:03:08;;;;;;;3.72;3.13;;;11.70;99.00;11.90;98891.00;;;;335793;28;96243;-90
2021/04/30 00:03:20;;;;;;;3.70;2.90;;;11.80;99.00;11.90;98887.00;;;;335172;29;84536;-91
2021/04/30 00:03:31;;;;;;;3.58;2.95;;;11.80;99.00;11.90;98895.00;;;;337187;28;95654;-90
2021/04/30 00:03:43;;;;;;;4.32;3.05;;;11.70;99.10;11.90;98893.00;;;;337801;28;84619;-90
2021/04/30 00:03:54;;;;;;;4.70;3.08;;;11.80;99.10;11.90;98890.00;;;;339701;28;97205;-91
2021/04/30 00:04:05;;;;;;;4.82;3.05;;;11.80;99.00;12.10;98886.00;;;;336522;28;83681;-90
2021/04/30 00:04:17;;;;;;;4.07;2.97;;;11.80;99.00;12.10;98884.00;;;;339558;28;97275;-90
2021/04/30 00:04:29;;;;;;;4.22;3.00;;;11.80;99.10;12.10;98896.00;;;;336481;28;83825;-90
2021/04/30 00:04:40;;;;;;;4.00;3.15;;;11.90;99.00;12.00;98888.00;;;;338415;28;95588;-90
2021/04/30 00:04:52;;;;;;;3.58;3.20;;;11.80;99.00;12.00;98884.00;;;;336431;28;84864;-90
2021/04/30 00:05:04;;;;;;;3.25;2.95;;;11.80;98.90;12.10;98897.00;;;;337106;28;96931;-91
2021/04/30 00:05:16;;;;;;;2.95;2.65;;;11.90;98.90;12.10;98886.00;;;;335717;28;82861;-90
2021/04/30 00:05:29;;;;;;;2.70;2.45;;;11.90;98.90;12.10;98891.00;;;;337040;28;95603;-90
2021/04/30 00:05:40;;;;;;;4.28;2.70;;;11.90;98.90;12.20;98886.00;;;;340495;28;83419;-90
2021/04/30 00:05:52;;;;;;;5.88;2.85;;;11.90;99.00;12.10;98883.00;;;;336933;28;97144;-90
2021/04/30 00:06:04;;;;;;;6.20;2.95;;;11.90;99.00;12.20;98887.00;;;;337765;28;83635;-90
2021/04/30 00:06:16;;;;;;;5.13;3.10;;;11.90;99.00;12.30;98886.00;;;;341711;28;95974;-91
2021/04/30 00:06:27;;;;;;;4.25;3.03;;;11.90;98.90;12.30;98889.00;;;;338853;28;83607;-91
2021/04/30 00:06:41;;;;;;;3.50;2.58;;;11.90;99.10;12.30;98884.00;;;;337102;28;95952;-90
2021/04/30 00:06:53;;;;;;;3.92;2.72;;;12.00;98.90;12.30;98880.00;;;;336464;28;84826;-90
2021/04/30 00:07:04;;;;;;;4.53;2.90;;;12.00;98.90;12.40;98875.00;;;;335803;28;97457;-90
2021/04/30 00:07:15;;;;;;;4.18;2.80;;;12.00;98.80;12.40;98882.00;;;;335120;29;84168;-90
2021/04/30 00:07:27;;;;;;;3.22;2.42;;;12.00;99.10;12.40;98880.00;;;;338530;28;94567;-91
2021/04/30 00:07:38;;;;;;;2.83;2.22;;;12.00;98.80;12.40;98887.00;;;;337768;28;84005;-90
2021/04/30 00:07:50;;;;;;;3.60;2.65;;;12.00;98.70;12.40;98884.00;;;;339744;28;97099;-90
2021/04/30 00:08:01;;;;;;;4.30;2.95;;;12.10;98.60;12.50;98880.00;;;;337509;28;83842;-90
2021/04/30 00:08:14;;;;;;;4.55;3.00;;;12.10;98.60;12.40;98886.00;;;;334943;28;94608;-90
2021/04/30 00:08:25;;;;;;;5.97;3.28;;;12.10;98.50;12.40;98874.00;;;;337849;28;84655;-91
2021/04/30 00:08:38;;;;;;;5.90;2.88;;;12.20;98.40;12.50;98881.00;;;;337096;28;97273;-90
2021/04/30 00:08:50;;;;;;;6.57;2.53;;;12.20;98.70;12.50;98884.00;;;;337850;28;83363;-90
2021/04/30 00:09:01;;;;;;;6.22;2.55;;;12.20;98.40;12.50;98886.00;;;;335793;28;95855;-90
2021/04/30 00:09:13;;;;;;;6.90;3.00;;;12.20;98.30;12.40;98870.00;;;;336450;28;84962;-91
2021/04/30 00:09:24;;;;;;;3.97;3.10;;;12.20;98.20;12.40;98878.00;;;;335643;28;96054;-91
2021/04/30 00:09:36;;;;;;;3.78;2.90;;;12.20;98.10;12.30;98880.00;;;;335225;28;83157;-91
2021/04/30 00:09:48;;;;;;;3.63;2.90;;;12.20;98.10;12.20;98881.00;;;;338436;28;96041;-90
2021/04/30 00:09:59;;;;;;;3.47;2.97;;;12.20;98.10;12.30;98883.00;;;;337627;28;84414;-90
2021/04/30 00:10:11;;;;;;;3.33;2.70;;;12.20;98.10;12.20;98883.00;;;;337041;28;96706;-90
2021/04/30 00:10:24;;;;;;;3.45;2.63;;;12.20;98.10;12.20;98877.00;;;;337724;28;85230;-90
2021/04/30 00:10:35;;;;;;;4.40;2.70;;;12.20;98.10;12.40;98874.00;;;;338359;28;96769;-90
2021/04/30 00:10:46;;;;;;;4.53;2.90;;;12.20;98.10;12.20;98880.00;;;;339081;28;83689;-91
2021/04/30 00:10:58;;;;;;;5.32;3.05;;;12.20;98.20;12.20;98873.00;;;;335624;28;97372;-90
2021/04/30 00:11:09;;;;;;;4.47;3.08;;;12.20;98.20;12.40;98870.00;;;;337756;28;83513;-90
2021/04/30 00:11:21;;;;;;;3.95;3.25;;;12.20;98.20;12.30;98881.00;;;;337626;28;95306;-90
2021/04/30 00:11:32;;;;;;;3.55;3.25;;;12.20;98.30;12.20;98877.00;;;;336467;28;85305;-91
2021/04/30 00:11:44;;;;;;;3.88;3.47;;;12.20;98.20;12.20;98882.00;;;;337063;28;96694;-90
2021/04/30 00:11:55;;;;;;;3.95;3.20;;;12.20;98.20;12.20;98876.00;;;;336457;28;83799;-90
2021/04/30 00:12:07;;;;;;;4.25;3.08;;;12.20;98.20;12.30;98884.00;;;;337168;28;94834;-91
2021/04/30 00:12:20;;;;;;;4.68;2.97;;;12.20;98.20;12.40;98884.00;;;;340520;28;84329;-91
2021/04/30 00:12:31;;;;;;;4.60;3.25;;;12.20;98.20;12.40;98881.00;;;;336963;28;95889;-90
2021/04/30 00:12:43;;;;;;;3.30;2.65;;;12.20;98.30;12.40;98885.00;;;;337776;28;84856;-90
2021/04/30 00:12:54;;;;;;;3.25;2.55;;;12.20;98.20;12.40;98882.00;;;;338473;28;97814;-90
2021/04/30 00:13:06;;;;;;;3.38;2.72;;;12.20;98.20;12.50;98878.00;;;;337730;28;84757;-90
2021/04/30 00:13:18;;;;;;;3.25;2.85;;;12.20;98.50;12.40;98882.00;;;;338337;28;95220;-91
2021/04/30 00:13:30;;;;;;;3.53;2.85;;;12.20;98.20;12.50;98875.00;;;;337664;28;85484;-90
2021/04/30 00:13:41;;;;;;;3.67;2.67;;;12.30;98.20;12.50;98881.00;;;;338430;28;96114;-91
2021/04/30 00:13:53;;;;;;;3.53;2.40;;;12.30;98.20;12.30;98887.00;;;;336439;28;84571;-90
2021/04/30 00:14:04;;;;;;;3.67;2.67;;;12.30;98.10;12.20;98885.00;;;;337211;28;94642;-90
2021/04/30 00:14:17;;;;;;;4.20;2.95;;;12.30;98.30;12.10;98883.00;;;;336336;28;83781;-91
2021/04/30 00:14:28;;;;;;;4.68;2.95;;;12.30;98.00;12.30;98883.00;;;;337027;28;97189;-90
2021/04/30 00:14:40;;;;;;;4.68;2.92;;;12.30;98.00;12.10;98890.00;;;;337793;28;84020;-90
2021/04/30 00:14:52;;;;;;;4.63;3.25;;;12.20;98.00;12.00;98882.00;;;;338487;28;93345;-91
2021/04/30 00:15:04;;;;;;;4.43;3.42;;;12.20;98.00;12.00;98876.00;;;;339222;28;82470;-89
2021/04/30 00:15:16;;;;;;;4.32;3.15;;;12.10;98.00;12.10;98886.00;;;;337114;28;95730;-90
2021/04/30 00:15:27;;;;;;;5.60;3.05;;;12.10;98.10;12.20;98882.00;;;;339130;28;85060;-90
2021/04/30 00:15:39;;;;;;;5.00;2.97;;;12.10;98.20;12.30;98884.00;;;;335970;28;92959;-90
2021/04/30 00:15:51;;;;;;;4.38;2.60;;;12.10;98.20;12.30;98884.00;;;;337730;28;84505;-90
2021/04/30 00:16:03;;;;;;;3.85;2.78;;;12.10;98.20;12.30;98885.00;;;;334468;29;96294;-90
2021/04/30 00:16:15;;;;;;;3.60;2.80;;;12.10;98.20;12.30;98881.00;;;;337851;28;83875;-90
2021/04/30 00:16:26;;;;;;;4.20;3.13;;;12.10;98.20;12.40;98882.00;;;;338331;28;96654;-91
2021/04/30 00:16:39;;;;;;;4.78;3.17;;;12.10;98.50;12.40;98882.00;;;;337763;28;83963;-90
2021/04/30 00:16:52;;;;;;;4.63;3.08;;;12.20;98.40;12.50;98881.00;;;;337033;28;97562;-91
2021/04/30 00:17:04;;;;;;;3.95;3.00;;;12.20;98.40;12.40;98881.00;;;;340500;28;85142;-90
2021/04/30 00:17:16;;;;;;;3.75;2.88;;;12.20;98.40;12.40;98876.00;;;;336911;28;96370;-90
2021/04/30 00:17:27;;;;;;;3.40;2.88;;;12.20;98.30;12.40;98883.00;;;;338340;28;83665;-91
2021/04/30 00:17:39;;;;;;;3.53;2.85;;;12.20;98.30;12.30;98882.00;;;;335872;28;97161;-90
2021/04/30 00:17:50;;;;;;;3.95;2.90;;;12.20;98.20;12.10;98878.00;;;;339107;28;84736;-91
2021/04/30 00:18:05;;;;;;;4.13;3.10;;;12.20;98.10;12.10;98887.00;;;;337033;28;97273;-90
2021/04/30 00:18:16;;;;;;;4.50;3.25;;;12.20;98.10;12.10;98876.00;;;;338499;28;83882;-90
2021/04/30 00:18:28;;;;;;;4.85;3.15;;;12.20;98.10;12.00;98886.00;;;;338295;28;97105;-90
2021/04/30 00:18:40;;;;;;;5.86;3.38;;;12.20;98.00;12.00;98887.00;;;;337890;28;84024;-90
2021/04/30 00:18:51;;;;;;;5.38;3.60;;;12.10;98.00;12.00;98883.00;;;;339650;28;97056;-90
2021/04/30 00:19:03;;;;;;;6.10;3.58;;;12.10;98.00;12.00;98880.00;;;;339131;28;84197;-91
2021/04/30 00:19:14;;;;;;;4.63;3.05;;;12.10;98.10;12.00;98880.00;;;;339850;28;94554;-90
2021/04/30 00:19:27;;;;;;;4.60;2.70;;;12.10;98.10;12.00;98890.00;;;;340363;28;83809;-90
2021/04/30 00:19:38;;;;;;;5.35;3.00;;;12.10;98.10;11.90;98886.00;;;;338317;28;96748;-90
2021/04/30 00:19:49;;;;;;;5.70;3.17;;;12.10;98.10;11.80;98886.00;;;;339021;28;83716;-90
2021/04/30 00:20:01;;;;;;;4.97;3.00;;;12.00;98.20;11.80;98893.00;;;;338494;28;96923;-91
2021/04/30 00:20:14;;;;;;;3.53;3.03;;;12.00;98.20;11.80;98883.00;;;;338928;28;84939;-90
2021/04/30 00:20:26;;;;;;;3.80;3.40;;;11.90;98.20;11.80;98884.00;;;;334689;28;95625;-90
2021/04/30 00:20:39;;;;;;;5.00;3.13;;;11.90;98.20;11.90;98886.00;;;;339045;28;83543;-90
2021/04/30 00:20:55;;;;;;;4.15;2.47;;;11.90;98.30;12.10;98885.00;;;;338512;28;94603;-91
2021/04/30 00:21:07;;;;;;;3.40;2.63;;;12.00;98.50;12.00;98887.00;;;;337745;28;83951;-91
2021/04/30 00:21:18;;;;;;;4.35;2.65;;;11.90;98.40;12.10;98882.00;;;;341032;28;93958;-90
2021/04/30 00:21:30;;;;;;;5.22;3.00;;;11.90;98.40;12.10;98885.00;;;;339199;28;83353;-91
2021/04/30 00:21:42;;;;;;;4.35;2.95;;;12.00;98.40;12.00;98885.00;;;;337014;28;95904;-90
2021/04/30 00:21:53;;;;;;;4.10;2.97;;;12.00;98.40;11.90;98887.00;;;;341772;28;85306;-90
2021/04/30 00:22:05;;;;;;;4.40;2.75;;;12.00;98.40;11.90;98884.00;;;;338317;28;97028;-91
2021/04/30 00:22:17;;;;;;;5.32;2.95;;;11.90;98.40;11.90;98884.00;;;;339072;28;83713;-90
2021/04/30 00:22:29;;;;;;;6.25;2.88;;;11.90;98.40;12.00;98885.00;;;;338419;28;97027;-90
2021/04/30 00:22:40;;;;;;;5.43;2.72;;;11.90;98.40;12.10;98886.00;;;;339054;28;84796;-90
2021/04/30 00:22:52;;;;;;;5.40;2.50;;;11.90;98.50;12.00;98888.00;;;;337074;28;96789;-90
2021/04/30 00:23:11;;;;;;;5.63;2.63;;;11.90;98.50;12.00;98883.00;;;;337515;28;85185;-90
2021/04/30 00:23:29;;;;;;;5.22;3.13;;;12.00;98.50;12.00;98889.00;;;;338295;28;96223;-90
2021/04/30 00:23:41;;;;;;;3.95;3.00;;;11.90;98.40;12.00;98881.00;;;;336490;28;85370;-90
2021/04/30 00:23:56;;;;;;;3.80;3.03;;;12.00;98.50;11.90;98885.00;;;;335637;28;95925;-90
2021/04/30 00:24:09;;;;;;;4.95;3.17;;;11.90;98.50;11.80;98887.00;;;;340394;28;84758;-90
2021/04/30 00:24:20;;;;;;;7.57;3.65;;;11.90;98.30;11.70;98886.00;;;;339367;28;96742;-91
2021/04/30 00:24:32;;;;;;;7.53;3.38;;;11.90;98.30;11.70;98884.00;;;;340452;28;83510;-91
2021/04/30 00:24:44;;;;;;;5.80;2.83;;;11.90;98.60;11.70;98883.00;;;;337040;28;97152;-90
2021/04/30 00:24:57;;;;;;;5.82;2.55;;;11.80;98.40;11.60;98873.00;;;;339185;28;83706;-90
2021/04/30 00:25:09;;;;;;;4.32;2.80;;;11.80;98.50;11.60;98883.00;;;;338340;28;96181;-91
2021/04/30 00:25:20;;;;;;;4.90;3.15;;;11.80;98.50;11.60;98876.00;;;;339070;28;84859;-90
2021/04/30 00:25:32;;;;;;;5.28;3.45;;;11.80;98.50;11.60;98883.00;;;;339812;28;95466;-90
2021/04/30 00:25:45;;;;;;;4.18;3.10;;;11.80;98.60;11.60;98875.00;;;;339075;28;85359;-91
2021/04/30 00:25:59;;;;;;;3.20;2.75;;;11.70;98.70;11.60;98884.00;;;;339728;28;96391;-90
2021/04/30 00:26:11;;;;;;;4.75;2.90;;;11.70;98.80;11.50;98877.00;;;;337454;28;84882;-91
2021/04/30 00:26:22;;;;;;;5.03;3.28;;;11.70;98.90;11.60;98883.00;;;;338132;28;97118;-90
2021/04/30 00:26:33;;;;;;;4.68;3.40;;;11.60;99.10;11.70;98883.00;;;;337593;28;83924;-90
2021/04/30 00:26:45;;;;;;;3.92;3.00;;;11.60;98.90;11.60;98883.00;;;;339656;28;96512;-90
2021/04/30 00:26:56;;;;;;;3.97;2.42;;;11.60;98.90;11.60;98887.00;;;;337634;28;84858;-91
2021/04/30 00:27:08;;;;;;;3.53;2.40;;;11.60;98.90;11.60;98878.00;;;;338304;28;96297;-90
2021/04/30 00:27:19;;;;;;;3.45;2.50;;;11.60;99.00;11.60;98879.00;;;;335377;28;83588;-90
2021/04/30 00:27:31;;;;;;;4.10;2.70;;;11.60;99.00;11.60;98883.00;;;;337197;28;94919;-90
2021/04/30 00:27:42;;;;;;;4.10;2.70;;;11.60;99.00;11.60;98874.00;;;;339468;28;83434;-91
2021/04/30 00:27:54;;;;;;;3.78;2.78;;;11.60;99.10;11.60;98881.00;;;;338614;28;96220;-90
2021/04/30 00:28:06;;;;;;;2.90;2.38;;;11.60;99.10;11.80;98870.00;;;;340881;28;84878;-91
2021/04/30 00:28:17;;;;;;;3.55;2.38;;;11.60;99.10;11.90;98874.00;;;;340242;28;97587;-90
2021/04/30 00:28:30;;;;;;;3.90;2.60;;;11.60;99.10;11.90;98877.00;;;;342160;28;83769;-90
2021/04/30 00:28:41;;;;;;;4.50;2.88;;;11.60;99.10;11.70;98876.00;;;;338841;28;95997;-90
2021/04/30 00:28:54;;;;;;;4.45;3.03;;;11.60;99.10;11.70;98873.00;;;;342195;28;85547;-90
2021/04/30 00:29:06;;;;;;;3.63;2.83;;;11.60;99.10;11.80;98877.00;;;;338794;28;96862;-91
2021/04/30 00:29:17;;;;;;;3.13;2.70;;;11.60;99.00;11.90;98882.00;;;;339085;28;83794;-90
2021/04/30 00:29:29;;;;;;;3.40;2.72;;;11.60;99.10;11.80;98871.00;;;;340093;28;94855;-88
2021/04/30 00:29:40;;;;;;;4.20;2.92;;;11.60;99.10;11.90;98874.00;;;;336391;28;84126;-91
2021/04/30 00:29:52;;;;;;;4.57;2.97;;;11.70;99.10;11.80;98871.00;;;;340164;28;97448;-90
2021/04/30 00:30:06;;;;;;;3.90;2.75;;;11.70;99.10;11.70;98877.00;;;;339572;28;83536;-90
2021/04/30 00:30:18;;;;;;;3.25;2.30;;;11.70;99.00;11.60;98876.00;;;;338763;28;96853;-90
2021/04/30 00:30:30;;;;;;;3.50;2.45;;;11.60;99.00;11.60;98871.00;;;;339400;28;83815;-90
2021/04/30 00:30:42;;;;;;;5.00;2.92;;;11.60;99.00;11.60;98873.00;;;;338848;28;95679;-90
2021/04/30 00:30:54;;;;;;;5.53;3.00;;;11.60;99.10;11.60;98876.00;;;;338296;28;82394;-90
2021/04/30 00:31:06;;;;;;;7.15;3.30;;;11.60;99.10;11.50;98869.00;;;;337501;28;96503;-91
2021/04/30 00:31:18;;;;;;;6.40;3.17;;;11.60;99.10;11.50;98874.00;;;;338129;28;83606;-90
2021/04/30 00:31:31;;;;;;;4.10;2.72;;;11.50;99.10;11.50;98872.00;;;;336231;28;96187;-90
2021/04/30 00:31:43;;;;;;;4.05;2.65;;;11.50;99.10;11.50;98874.00;;;;338189;28;85101;-91
2021/04/30 00:31:54;;;;;;;5.38;2.80;;;11.50;99.10;11.50;98879.00;;;;334760;28;95943;-91
2021/04/30 00:32:06;;;;;;;5.53;2.80;;;11.50;99.10;11.60;98877.00;;;;338098;28;83474;-90
2021/04/30 00:32:18;;;;;;;4.32;2.78;;;11.50;99.10;11.70;98876.00;;;;338422;28;96432;-90
2021/04/30 00:32:30;;;;;;;3.70;2.85;;;11.50;99.10;11.70;98878.00;;;;337682;28;84644;-90
2021/04/30 00:32:42;;;;;;;3.60;3.00;;;11.50;99.20;11.60;98877.00;;;;338725;28;95941;-91
2021/04/30 00:32:54;;;;;;;3.50;2.85;;;11.50;99.30;11.60;98877.00;;;;339630;28;84357;-90
2021/04/30 00:33:05;;;;;;;4.28;2.75;;;11.50;99.20;11.80;98870.00;;;;338402;28;94829;-91
2021/04/30 00:33:17;;;;;;;4.55;2.85;;;11.50;99.20;11.80;98865.00;;;;338102;28;83639;-89
2021/04/30 00:33:29;;;;;;;3.72;2.95;;;11.50;99.30;11.80;98870.00;;;;340290;28;95892;-90
2021/04/30 00:33:41;;;;;;;3.35;2.55;;;11.50;99.30;11.70;98866.00;;;;339565;28;83810;-90
2021/04/30 00:33:52;;;;;;;4.20;2.72;;;11.50;99.30;11.70;98880.00;;;;339781;28;95811;-90
2021/04/30 00:34:04;;;;;;;4.53;2.65;;;11.50;99.20;11.80;98868.00;;;;338036;28;83765;-90
2021/04/30 00:34:16;;;;;;;3.55;2.53;;;11.60;99.20;11.70;98868.00;;;;337236;28;97030;-90
2021/04/30 00:34:27;;;;;;;2.92;2.60;;;11.60;99.20;11.60;98868.00;;;;337886;28;83881;-90
2021/04/30 00:34:40;;;;;;;3.13;2.80;;;11.50;99.10;11.60;98870.00;;;;335702;28;96844;-91
2021/04/30 00:34:52;;;;;;;4.13;2.80;;;11.50;99.10;11.60;98870.00;;;;339119;28;83932;-90
2021/04/30 00:35:04;;;;;;;4.03;2.63;;;11.50;99.10;11.70;98870.00;;;;337103;28;97692;-90
2021/04/30 00:35:18;;;;;;;3.88;2.72;;;11.50;99.20;11.80;98864.00;;;;337556;28;83765;-89
2021/04/30 00:35:29;;;;;;;3.25;2.70;;;11.50;99.20;11.90;98867.00;;;;337005;28;94942;-90
2021/04/30 00:35:43;;;;;;;3.22;2.60;;;11.60;99.30;11.90;98866.00;;;;337671;28;84960;-90
2021/04/30 00:35:54;;;;;;;2.72;2.38;;;11.60;99.30;12.00;98865.00;;;;339573;28;97473;-90
2021/04/30 00:36:06;;;;;;;3.38;2.30;;;11.60;99.20;12.00;98868.00;;;;339087;28;85209;-90
2021/04/30 00:36:17;;;;;;;3.22;2.03;;;11.60;99.10;12.00;98868.00;;;;337536;28;96908;-90
2021/04/30 00:36:28;;;;;;;2.75;2.13;;;11.60;99.10;12.00;98866.00;;;;340262;28;83973;-91
2021/04/30 00:36:40;;;;;;;2.70;2.35;;;11.70;99.10;12.10;98866.00;;;;336895;28;93356;-90
2021/04/30 00:36:52;;;;;;;3.08;2.60;;;11.70;99.10;12.00;98871.00;;;;337720;28;84867;-91
2021/04/30 00:37:03;;;;;;;3.75;2.78;;;11.70;99.00;12.00;98867.00;;;;338422;28;94669;-90
2021/04/30 00:37:15;;;;;;;3.75;2.80;;;11.70;99.00;12.00;98870.00;;;;339034;28;83944;-90
2021/04/30 00:37:26;;;;;;;3.42;2.72;;;11.70;98.90;11.90;98859.00;;;;337172;28;96048;-90
2021/04/30 00:37:38;;;;;;;3.30;2.53;;;11.70;98.90;11.90;98859.00;;;;336418;28;83814;-90
2021/04/30 00:37:49;;;;;;;4.38;2.50;;;11.70;98.90;11.90;98857.00;;;;337058;28;97320;-90
2021/04/30 00:38:01;;;;;;;4.38;2.50;;;11.70;98.80;11.80;98864.00;;;;341785;28;83773;-91
2021/04/30 00:38:13;;;;;;;3.80;2.35;;;11.80;98.80;12.00;98865.00;;;;335844;28;96713;-90
2021/04/30 00:38:24;;;;;;;3.40;2.20;;;11.80;98.90;12.00;98867.00;;;;337719;28;83555;-91
2021/04/30 00:38:36;;;;;;;3.28;2.35;;;11.80;99.00;12.00;98869.00;;;;338275;28;97456;-90
2021/04/30 00:38:47;;;;;;;2.97;2.28;;;11.80;98.90;12.10;98865.00;;;;339017;28;83731;-91
2021/04/30 00:38:58;;;;;;;3.30;2.17;;;11.80;98.90;12.00;98868.00;;;;339490;28;96468;-90
2021/04/30 00:39:10;;;;;;;4.30;2.33;;;11.80;98.90;12.00;98866.00;;;;340325;28;84467;-90
2021/04/30 00:39:21;;;;;;;4.18;2.40;;;11.80;98.80;11.90;98866.00;;;;337147;28;95645;-90
2021/04/30 00:39:33;;;;;;;3.20;2.15;;;11.80;98.70;11.80;98865.00;;;;340483;28;83834;-90
2021/04/30 00:39:44;;;;;;;2.75;2.13;;;11.80;98.70;11.80;98862.00;;;;338325;28;97149;-91
2021/04/30 00:39:56;;;;;;;3.65;2.22;;;11.80;98.60;12.00;98869.00;;;;337706;28;84521;-90
2021/04/30 00:40:08;;;;;;;3.60;2.50;;;11.80;98.60;12.00;98866.00;;;;337067;28;97233;-90
2021/04/30 00:40:20;;;;;;;3.60;2.47;;;11.80;98.70;11.90;98855.00;;;;338960;28;83472;-90
2021/04/30 00:40:32;;;;;;;4.70;2.45;;;11.80;98.60;11.90;98862.00;;;;336931;28;95909;-90
2021/04/30 00:40:43;;;;;;;4.13;2.28;;;11.80;98.60;11.80;98865.00;;;;336442;28;84494;-90
2021/04/30 00:40:54;;;;;;;3.42;2.22;;;11.80;98.60;11.90;98864.00;;;;335792;28;95503;-90
2021/04/30 00:41:06;;;;;;;2.90;2.50;;;11.80;98.60;12.00;98860.00;;;;336537;28;82504;-90
2021/04/30 00:41:17;;;;;;;3.25;2.40;;;11.80;98.80;11.90;98855.00;;;;337813;28;95809;-90
2021/04/30 00:41:42;;;;;;;3.20;2.28;;;11.80;98.70;12.10;98861.00;;;;335047;29;84798;-90
2021/04/30 00:41:53;;;;;;;2.67;2.22;;;11.80;98.80;12.10;98862.00;;;;335692;28;96646;-90
2021/04/30 00:42:05;;;;;;;3.10;2.05;;;11.90;99.10;12.00;98860.00;;;;337743;28;84814;-91
2021/04/30 00:42:17;;;;;;;3.28;2.10;;;11.90;98.70;12.00;98861.00;;;;339631;28;96329;-90
2021/04/30 00:42:28;;;;;;;3.53;2.13;;;11.90;98.70;12.10;98860.00;;;;337694;28;84409;-90
2021/04/30 00:42:40;;;;;;;4.47;2.33;;;11.90;98.70;12.10;98855.00;;;;338309;28;95560;-92
2021/04/30 00:42:55;;;;;;;5.75;2.45;;;11.90;98.70;12.20;98855.00;;;;340433;28;85123;-89
2021/04/30 00:43:06;;;;;;;4.82;2.38;;;11.90;98.70;12.20;98851.00;;;;337996;28;95575;-90
2021/04/30 00:43:18;;;;;;;3.90;2.35;;;12.00;98.70;12.20;98851.00;;;;337705;28;85259;-90
2021/04/30 00:43:29;;;;;;;3.40;2.38;;;12.00;98.60;12.30;98865.00;;;;339788;28;96316;-90
2021/04/30 00:43:41;;;;;;;3.15;2.20;;;12.00;98.60;12.30;98852.00;;;;340402;28;84837;-90
2021/04/30 00:43:52;;;;;;;3.08;2.35;;;12.00;98.50;12.40;98868.00;;;;337042;28;96748;-90
2021/04/30 00:44:05;;;;;;;3.22;2.63;;;12.00;98.50;12.30;98857.00;;;;339250;28;82409;-90
2021/04/30 00:44:17;;;;;;;3.08;2.53;;;12.10;98.40;12.20;98847.00;;;;336627;28;96137;-91
2021/04/30 00:44:29;;;;;;;3.20;2.38;;;12.10;98.30;12.30;98856.00;;;;336937;28;84067;-91
2021/04/30 00:44:43;;;;;;;3.97;2.50;;;12.10;98.20;12.30;98852.00;;;;335758;28;96433;-91
2021/04/30 00:44:54;;;;;;;4.35;2.47;;;12.10;98.20;12.30;98855.00;;;;337738;28;85073;-90
2021/04/30 00:45:07;;;;;;;4.35;2.10;;;12.10;98.10;12.30;98853.00;;;;335683;28;97549;-90
2021/04/30 00:45:19;;;;;;;3.75;1.83;;;12.10;98.10;12.40;98851.00;;;;337683;28;84964;-91
2021/04/30 00:45:32;;;;;;;3.15;1.88;;;12.10;98.10;12.40;98850.00;;;;337293;28;93414;-90
2021/04/30 00:45:43;;;;;;;3.15;1.95;;;12.10;98.10;12.30;98846.00;;;;340464;28;83564;-90
2021/04/30 00:45:55;;;;;;;3.08;2.17;;;12.10;98.10;12.20;98847.00;;;;335408;28;97735;-91
2021/04/30 00:46:06;;;;;;;3.20;2.50;;;12.10;98.00;12.30;98847.00;;;;339203;28;83313;-90
2021/04/30 00:46:18;;;;;;;3.42;2.70;;;12.10;97.90;12.40;98854.00;;;;338201;28;96903;-90
2021/04/30 00:46:30;;;;;;;3.13;2.63;;;12.10;98.00;12.40;98843.00;;;;340461;28;83373;-89
2021/04/30 00:46:41;;;;;;;3.05;2.63;;;12.20;98.00;12.40;98850.00;;;;335759;28;95319;-90
2021/04/30 00:46:53;;;;;;;2.72;2.25;;;12.20;98.20;12.50;98847.00;;;;336382;28;85194;-90
2021/04/30 00:47:05;;;;;;;2.92;2.03;;;12.20;98.00;12.40;98844.00;;;;336985;28;97018;-90
2021/04/30 00:47:32;;;;;;;2.95;1.98;;;12.20;97.90;12.30;98853.00;;;;338043;28;82774;-91
2021/04/30 00:47:44;;;;;;;3.42;2.28;;;12.20;98.20;12.10;98846.00;;;;334445;29;95971;-90
2021/04/30 00:47:55;;;;;;;3.45;2.25;;;12.20;97.70;12.00;98850.00;;;;340370;28;84444;-90
2021/04/30 00:48:10;;;;;;;4.20;2.22;;;12.20;97.60;12.00;98849.00;;;;336885;28;97528;-91
2021/04/30 00:48:21;;;;;;;3.50;2.17;;;12.10;97.60;12.00;98850.00;;;;338986;28;84232;-89
2021/04/30 00:48:33;;;;;;;2.90;1.98;;;12.10;97.60;12.00;98845.00;;;;335695;28;97730;-89
2021/04/30 00:48:45;;;;;;;3.53;2.00;;;12.10;97.70;12.00;98840.00;;;;336513;28;83793;-90
2021/04/30 00:48:56;;;;;;;3.42;2.00;;;12.10;97.70;12.10;98846.00;;;;338519;28;92945;-90
2021/04/30 00:49:07;;;;;;;3.05;2.08;;;12.10;97.80;12.10;98847.00;;;;338996;28;82772;-90
2021/04/30 00:49:19;;;;;;;2.80;2.00;;;12.10;97.80;12.10;98839.00;;;;341001;28;97628;-90
2021/04/30 00:49:31;;;;;;;3.28;1.85;;;12.10;97.80;12.10;98835.00;;;;341785;28;83874;-90
2021/04/30 00:49:42;;;;;;;2.95;1.73;;;12.10;97.80;12.10;98851.00;;;;338388;28;96699;-90
2021/04/30 00:49:53;;;;;;;3.65;1.67;;;12.10;97.80;12.30;98846.00;;;;338958;28;83917;-90
2021/04/30 00:50:07;;;;;;;4.93;1.80;;;12.10;97.90;12.30;98850.00;;;;339672;28;97090;-90
2021/04/30 00:50:21;;;;;;;5.50;2.20;;;12.10;98.00;12.30;98844.00;;;;338457;28;85223;-90
2021/04/30 00:50:33;;;;;;;3.03;2.20;;;12.10;97.90;12.30;98848.00;;;;335598;28;95731;-90
2021/04/30 00:50:44;;;;;;;2.53;2.00;;;12.20;98.00;12.30;98844.00;;;;339007;28;83413;-90
2021/04/30 00:50:55;;;;;;;2.88;2.28;;;12.20;97.90;12.30;98849.00;;;;336986;28;97111;-90
2021/04/30 00:51:07;;;;;;;2.85;2.35;;;12.20;97.90;12.30;98842.00;;;;339103;28;83685;-90
2021/04/30 00:51:18;;;;;;;3.05;2.47;;;12.20;97.90;12.40;98841.00;;;;335692;28;96761;-91
2021/04/30 00:51:30;;;;;;;3.00;2.30;;;12.20;98.00;12.50;98844.00;;;;339070;28;84867;-90
2021/04/30 00:51:41;;;;;;;3.55;2.40;;;12.20;98.00;12.50;98841.00;;;;335527;28;95268;-90
2021/04/30 00:51:52;;;;;;;4.10;2.32;;;12.20;98.00;12.40;98842.00;;;;336257;28;85293;-90
2021/04/30 00:52:04;;;;;;;4.50;2.25;;;12.20;98.00;12.50;98836.00;;;;336979;28;96699;-90
2021/04/30 00:52:16;;;;;;;3.15;2.10;;;12.20;98.00;12.30;98837.00;;;;337754;28;83934;-90
2021/04/30 00:52:28;;;;;;;2.90;2.13;;;12.20;97.90;12.30;98841.00;;;;339701;28;97018;-90
2021/04/30 00:52:40;;;;;;;3.50;2.15;;;12.20;97.80;12.40;98832.00;;;;337773;28;84692;-90
2021/04/30 00:52:51;;;;;;;4.00;2.42;;;12.20;97.80;12.50;98839.00;;;;339764;28;94873;-90
2021/04/30 00:53:03;;;;;;;4.28;2.22;;;12.20;97.90;12.50;98841.00;;;;336290;28;85393;-91
2021/04/30 00:53:14;;;;;;;4.05;2.28;;;12.30;98.00;12.60;98846.00;;;;338876;28;97136;-91
2021/04/30 00:53:26;;;;;;;3.65;1.90;;;12.30;98.00;12.60;98837.00;;;;335251;28;83741;-90
2021/04/30 00:53:37;;;;;;;3.55;2.03;;;12.30;97.90;12.60;98837.00;;;;337147;28;96837;-90
2021/04/30 00:53:49;;;;;;;3.17;2.20;;;12.30;97.80;12.60;98832.00;;;;339995;28;84996;-91
2021/04/30 00:54:00;;;;;;;3.35;2.30;;;12.30;97.80;12.60;98841.00;;;;338063;28;95820;-90